createdAt,value
2024-01-12T00:18:17.638Z,0.24
2024-01-12T00:38:17.624Z,0.20
2024-01-12T00:58:17.693Z,0.28
2024-01-12T01:18:17.418Z,0.40
2024-01-12T01:38:17.644Z,0.61
2024-01-12T01:58:17.753Z,0.70
2024-01-12T02:18:17.520Z,0.56
2024-01-12T02:38:17.422Z,0.42
2024-01-12T02:58:17.407Z,0.50
2024-01-12T03:18:17.755Z,0.71
2024-01-12T03:38:17.703Z,0.70
2024-01-12T03:58:17.730Z,0.71
2024-01-12T04:18:17.750Z,0.71
2024-01-12T04:38:17.729Z,0.73
2024-01-12T04:58:17.646Z,0.80
2024-01-12T05:18:17.812Z,0.71
2024-01-12T05:38:17.694Z,0.63
2024-01-12T05:58:17.809Z,0.56
2024-01-12T06:18:17.715Z,0.53
2024-01-12T06:38:17.674Z,0.49
2024-01-12T06:58:17.739Z,0.43
2024-01-12T07:18:17.529Z,0.46
2024-01-12T07:38:17.592Z,0.55
2024-01-12T07:58:17.562Z,0.56
2024-01-12T08:18:17.657Z,0.52
2024-01-12T08:38:17.713Z,0.59
2024-01-12T08:58:17.704Z,0.46
2024-01-12T09:18:17.405Z,0.57
2024-01-12T09:38:17.571Z,0.66
2024-01-12T09:58:17.683Z,0.61
2024-01-12T10:18:17.602Z,0.69
2024-01-12T10:38:17.678Z,0.72
2024-01-12T10:58:17.662Z,0.73
2024-01-12T11:18:17.554Z,0.82
2024-01-12T11:38:17.691Z,0.80
2024-01-12T11:58:17.656Z,0.85
2024-01-12T12:18:17.662Z,0.88
2024-01-12T12:38:17.625Z,0.83
2024-01-12T12:58:17.323Z,0.88
2024-01-12T13:18:17.564Z,0.74
2024-01-12T13:38:17.549Z,0.65
2024-01-12T13:58:17.507Z,0.81
2024-01-12T14:18:17.479Z,0.53
2024-01-12T14:38:17.559Z,0.55
2024-01-12T14:58:17.339Z,0.72
2024-01-12T15:18:17.416Z,0.54
2024-01-12T15:38:17.377Z,0.81
2024-01-12T15:58:17.304Z,0.82
2024-01-12T16:18:17.322Z,0.81
2024-01-12T16:38:17.294Z,0.81
2024-01-12T16:58:17.301Z,0.81
2024-01-12T17:18:17.286Z,0.76
2024-01-12T17:38:17.283Z,0.80
2024-01-12T17:58:17.285Z,0.81
2024-01-12T18:18:17.285Z,0.74
2024-01-12T18:38:17.277Z,0.70
2024-01-12T18:58:17.280Z,0.69
2024-01-12T19:18:17.306Z,0.67
2024-01-12T19:38:17.284Z,0.64
2024-01-12T19:58:17.277Z,0.65
2024-01-12T20:18:17.274Z,0.69
2024-01-12T20:38:17.261Z,0.50
2024-01-12T20:58:17.257Z,0.26
2024-01-12T21:18:17.307Z,0.47
2024-01-12T21:38:17.253Z,0.54
2024-01-12T21:58:17.264Z,0.63
2024-01-12T22:18:17.261Z,0.61
2024-01-12T22:38:17.250Z,0.76
2024-01-12T22:58:17.259Z,0.80
2024-01-12T23:18:17.247Z,0.74
2024-01-12T23:38:17.247Z,0.42
2024-01-12T23:58:17.236Z,0.47
